sensor_id;sensor_type;location;lat;lon;timestamp;P1;durP1;ratioP1;P2;durP2;ratioP2
17854;SDS011;9053;53.358;6.382;2023-08-07T00:02:28;3.22;;;1.45;;
17854;SDS011;9053;53.358;6.382;2023-08-07T00:04:58;1.70;;;1.33;;
17854;SDS011;9053;53.358;6.382;2023-08-07T00:07:28;4.00;;;1.60;;
17854;SDS011;9053;53.358;6.382;2023-08-07T00:09:58;2.53;;;1.35;;
17854;SDS011;9053;53.358;6.382;2023-08-07T00:12:32;2.20;;;1.67;;
17854;SDS011;9053;53.358;6.382;2023-08-07T00:15:02;2.92;;;1.48;;
17854;SDS011;9053;53.358;6.382;2023-08-07T00:17:35;2.75;;;1.17;;
17854;SDS011;9053;53.358;6.382;2023-08-07T00:20:06;3.03;;;1.50;;
17854;SDS011;9053;53.358;6.382;2023-08-07T00:22:37;1.83;;;1.38;;
17854;SDS011;9053;53.358;6.382;2023-08-07T00:25:07;2.53;;;1.77;;
17854;SDS011;9053;53.358;6.382;2023-08-07T00:27:37;1.83;;;1.30;;
17854;SDS011;9053;53.358;6.382;2023-08-07T00:30:08;3.33;;;1.58;;
17854;SDS011;9053;53.358;6.382;2023-08-07T00:32:43;2.10;;;1.40;;
17854;SDS011;9053;53.358;6.382;2023-08-07T00:35:13;2.22;;;1.58;;
17854;SDS011;9053;53.358;6.382;2023-08-07T00:37:43;2.25;;;1.60;;
17854;SDS011;9053;53.358;6.382;2023-08-07T00:40:13;1.98;;;1.40;;
17854;SDS011;9053;53.358;6.382;2023-08-07T00:42:43;2.33;;;1.35;;
17854;SDS011;9053;53.358;6.382;2023-08-07T00:45:12;2.83;;;1.40;;
17854;SDS011;9053;53.358;6.382;2023-08-07T00:47:46;2.25;;;1.40;;
17854;SDS011;9053;53.358;6.382;2023-08-07T00:50:17;2.92;;;1.30;;
17854;SDS011;9053;53.358;6.382;2023-08-07T00:52:49;1.85;;;1.45;;
17854;SDS011;9053;53.358;6.382;2023-08-07T00:55:19;2.22;;;1.25;;
17854;SDS011;9053;53.358;6.382;2023-08-07T00:57:49;2.95;;;1.20;;
17854;SDS011;9053;53.358;6.382;2023-08-07T01:00:19;2.08;;;1.38;;
17854;SDS011;9053;53.358;6.382;2023-08-07T01:02:52;2.65;;;1.23;;
17854;SDS011;9053;53.358;6.382;2023-08-07T01:05:24;2.65;;;1.35;;
17854;SDS011;9053;53.358;6.382;2023-08-07T01:07:55;2.10;;;1.05;;
17854;SDS011;9053;53.358;6.382;2023-08-07T01:10:29;3.63;;;1.42;;
17854;SDS011;9053;53.358;6.382;2023-08-07T01:13:11;2.75;;;1.60;;
17854;SDS011;9053;53.358;6.382;2023-08-07T01:15:48;2.13;;;1.30;;
17854;SDS011;9053;53.358;6.382;2023-08-07T01:18:24;3.15;;;1.40;;
17854;SDS011;9053;53.358;6.382;2023-08-07T01:20:56;2.53;;;1.30;;
17854;SDS011;9053;53.358;6.382;2023-08-07T01:23:28;2.65;;;1.45;;
17854;SDS011;9053;53.358;6.382;2023-08-07T01:25:58;2.45;;;1.30;;
17854;SDS011;9053;53.358;6.382;2023-08-07T01:28:30;2.13;;;1.45;;
17854;SDS011;9053;53.358;6.382;2023-08-07T01:31:07;2.63;;;1.42;;
17854;SDS011;9053;53.358;6.382;2023-08-07T01:33:46;2.50;;;1.60;;
17854;SDS011;9053;53.358;6.382;2023-08-07T01:36:23;2.80;;;1.50;;
17854;SDS011;9053;53.358;6.382;2023-08-07T01:38:59;2.88;;;1.50;;
17854;SDS011;9053;53.358;6.382;2023-08-07T01:41:33;2.60;;;1.60;;
17854;SDS011;9053;53.358;6.382;2023-08-07T01:44:05;2.97;;;1.60;;
17854;SDS011;9053;53.358;6.382;2023-08-07T01:46:35;1.58;;;1.40;;
17854;SDS011;9053;53.358;6.382;2023-08-07T01:49:05;1.85;;;1.42;;
17854;SDS011;9053;53.358;6.382;2023-08-07T01:51:35;2.20;;;1.58;;
17854;SDS011;9053;53.358;6.382;2023-08-07T01:54:07;2.22;;;1.55;;
17854;SDS011;9053;53.358;6.382;2023-08-07T01:56:37;2.97;;;1.52;;
17854;SDS011;9053;53.358;6.382;2023-08-07T01:59:07;1.50;;;1.30;;
17854;SDS011;9053;53.358;6.382;2023-08-07T02:01:37;2.53;;;1.58;;
17854;SDS011;9053;53.358;6.382;2023-08-07T02:04:07;2.05;;;1.60;;
17854;SDS011;9053;53.358;6.382;2023-08-07T02:06:37;4.15;;;1.90;;
17854;SDS011;9053;53.358;6.382;2023-08-07T02:09:09;2.85;;;1.50;;
17854;SDS011;9053;53.358;6.382;2023-08-07T02:11:39;3.17;;;1.50;;
17854;SDS011;9053;53.358;6.382;2023-08-07T02:14:09;2.22;;;1.42;;
17854;SDS011;9053;53.358;6.382;2023-08-07T02:16:39;3.22;;;1.50;;
17854;SDS011;9053;53.358;6.382;2023-08-07T02:19:09;2.80;;;1.50;;
17854;SDS011;9053;53.358;6.382;2023-08-07T02:21:39;2.03;;;1.52;;
17854;SDS011;9053;53.358;6.382;2023-08-07T02:24:11;2.85;;;1.40;;
17854;SDS011;9053;53.358;6.382;2023-08-07T02:26:41;4.63;;;1.50;;
17854;SDS011;9053;53.358;6.382;2023-08-07T02:29:11;3.45;;;1.50;;
17854;SDS011;9053;53.358;6.382;2023-08-07T02:31:41;2.40;;;1.40;;
17854;SDS011;9053;53.358;6.382;2023-08-07T02:34:11;1.83;;;1.00;;
17854;SDS011;9053;53.358;6.382;2023-08-07T02:36:42;4.05;;;1.30;;
17854;SDS011;9053;53.358;6.382;2023-08-07T02:39:14;3.53;;;1.42;;
17854;SDS011;9053;53.358;6.382;2023-08-07T02:41:44;3.40;;;1.30;;
17854;SDS011;9053;53.358;6.382;2023-08-07T02:44:14;2.92;;;1.10;;
17854;SDS011;9053;53.358;6.382;2023-08-07T02:46:44;4.80;;;1.20;;
17854;SDS011;9053;53.358;6.382;2023-08-07T02:49:14;4.45;;;1.40;;
17854;SDS011;9053;53.358;6.382;2023-08-07T02:51:43;5.32;;;1.70;;
17854;SDS011;9053;53.358;6.382;2023-08-07T02:54:16;6.03;;;1.50;;
17854;SDS011;9053;53.358;6.382;2023-08-07T02:56:46;7.35;;;1.85;;
17854;SDS011;9053;53.358;6.382;2023-08-07T02:59:16;3.55;;;1.05;;
17854;SDS011;9053;53.358;6.382;2023-08-07T03:01:46;4.93;;;1.70;;
17854;SDS011;9053;53.358;6.382;2023-08-07T03:04:16;3.50;;;1.35;;
17854;SDS011;9053;53.358;6.382;2023-08-07T03:06:45;3.92;;;1.45;;
17854;SDS011;9053;53.358;6.382;2023-08-07T03:09:18;6.30;;;1.40;;
17854;SDS011;9053;53.358;6.382;2023-08-07T03:11:48;4.05;;;1.60;;
17854;SDS011;9053;53.358;6.382;2023-08-07T03:14:18;6.35;;;2.00;;
17854;SDS011;9053;53.358;6.382;2023-08-07T03:16:48;4.82;;;2.05;;
17854;SDS011;9053;53.358;6.382;2023-08-07T03:19:18;4.60;;;1.90;;
17854;SDS011;9053;53.358;6.382;2023-08-07T03:21:48;5.88;;;2.38;;
17854;SDS011;9053;53.358;6.382;2023-08-07T03:24:21;5.45;;;2.45;;
17854;SDS011;9053;53.358;6.382;2023-08-07T03:26:51;6.05;;;2.40;;
17854;SDS011;9053;53.358;6.382;2023-08-07T03:29:21;10.50;;;2.85;;
17854;SDS011;9053;53.358;6.382;2023-08-07T03:31:52;8.52;;;2.70;;
17854;SDS011;9053;53.358;6.382;2023-08-07T03:34:21;10.73;;;2.80;;
17854;SDS011;9053;53.358;6.382;2023-08-07T03:36:51;14.75;;;4.45;;
17854;SDS011;9053;53.358;6.382;2023-08-07T03:39:25;10.48;;;3.13;;
17854;SDS011;9053;53.358;6.382;2023-08-07T03:41:55;10.30;;;3.53;;
17854;SDS011;9053;53.358;6.382;2023-08-07T03:44:25;5.65;;;2.75;;
17854;SDS011;9053;53.358;6.382;2023-08-07T03:46:55;8.73;;;2.80;;
17854;SDS011;9053;53.358;6.382;2023-08-07T03:49:25;9.30;;;2.70;;
17854;SDS011;9053;53.358;6.382;2023-08-07T03:51:54;9.13;;;2.88;;
17854;SDS011;9053;53.358;6.382;2023-08-07T03:54:28;7.97;;;2.53;;
17854;SDS011;9053;53.358;6.382;2023-08-07T03:56:58;8.73;;;2.92;;
17854;SDS011;9053;53.358;6.382;2023-08-07T03:59:28;9.20;;;2.80;;
17854;SDS011;9053;53.358;6.382;2023-08-07T04:01:57;6.53;;;2.67;;
17854;SDS011;9053;53.358;6.382;2023-08-07T04:04:27;10.13;;;3.22;;
17854;SDS011;9053;53.358;6.382;2023-08-07T04:06:57;6.90;;;2.63;;
17854;SDS011;9053;53.358;6.382;2023-08-07T04:09:30;10.43;;;2.60;;
17854;SDS011;9053;53.358;6.382;2023-08-07T04:12:01;5.85;;;2.47;;
17854;SDS011;9053;53.358;6.382;2023-08-07T04:14:33;7.30;;;2.33;;
17854;SDS011;9053;53.358;6.382;2023-08-07T04:17:03;5.93;;;2.35;;
17854;SDS011;9053;53.358;6.382;2023-08-07T04:19:34;7.05;;;2.60;;
17854;SDS011;9053;53.358;6.382;2023-08-07T04:22:04;5.03;;;2.38;;
17854;SDS011;9053;53.358;6.382;2023-08-07T04:24:36;8.75;;;2.85;;
17854;SDS011;9053;53.358;6.382;2023-08-07T04:27:06;8.55;;;2.97;;
17854;SDS011;9053;53.358;6.382;2023-08-07T04:29:38;8.45;;;2.80;;
17854;SDS011;9053;53.358;6.382;2023-08-07T04:32:07;7.70;;;2.63;;
17854;SDS011;9053;53.358;6.382;2023-08-07T04:34:37;9.43;;;3.25;;
17854;SDS011;9053;53.358;6.382;2023-08-07T04:37:07;6.07;;;2.20;;
17854;SDS011;9053;53.358;6.382;2023-08-07T04:39:40;8.25;;;2.67;;
17854;SDS011;9053;53.358;6.382;2023-08-07T04:42:10;8.63;;;2.60;;
17854;SDS011;9053;53.358;6.382;2023-08-07T04:44:39;14.00;;;3.10;;
17854;SDS011;9053;53.358;6.382;2023-08-07T04:47:10;9.85;;;3.03;;
17854;SDS011;9053;53.358;6.382;2023-08-07T04:49:39;11.73;;;3.17;;
17854;SDS011;9053;53.358;6.382;2023-08-07T04:52:09;9.45;;;3.03;;
17854;SDS011;9053;53.358;6.382;2023-08-07T04:54:54;10.43;;;3.35;;
17854;SDS011;9053;53.358;6.382;2023-08-07T04:57:24;11.90;;;3.50;;
17854;SDS011;9053;53.358;6.382;2023-08-07T04:59:54;10.93;;;3.72;;
17854;SDS011;9053;53.358;6.382;2023-08-07T05:02:24;8.68;;;3.10;;
17854;SDS011;9053;53.358;6.382;2023-08-07T05:04:54;13.35;;;3.40;;
17854;SDS011;9053;53.358;6.382;2023-08-07T05:07:24;9.23;;;2.97;;
17854;SDS011;9053;53.358;6.382;2023-08-07T05:09:56;6.63;;;2.65;;
17854;SDS011;9053;53.358;6.382;2023-08-07T05:12:26;7.38;;;2.72;;
17854;SDS011;9053;53.358;6.382;2023-08-07T05:14:58;5.97;;;2.35;;
17854;SDS011;9053;53.358;6.382;2023-08-07T05:17:27;9.57;;;3.08;;
17854;SDS011;9053;53.358;6.382;2023-08-07T05:19:57;9.65;;;3.08;;
17854;SDS011;9053;53.358;6.382;2023-08-07T05:22:27;12.82;;;2.75;;
17854;SDS011;9053;53.358;6.382;2023-08-07T05:25:00;10.02;;;3.63;;
17854;SDS011;9053;53.358;6.382;2023-08-07T05:27:30;10.23;;;3.20;;
17854;SDS011;9053;53.358;6.382;2023-08-07T05:30:01;9.32;;;2.70;;
17854;SDS011;9053;53.358;6.382;2023-08-07T05:32:31;8.23;;;2.83;;
17854;SDS011;9053;53.358;6.382;2023-08-07T05:35:04;6.43;;;2.08;;
17854;SDS011;9053;53.358;6.382;2023-08-07T05:37:35;11.52;;;2.53;;
17854;SDS011;9053;53.358;6.382;2023-08-07T05:40:08;6.28;;;2.67;;
17854;SDS011;9053;53.358;6.382;2023-08-07T05:42:39;7.13;;;2.75;;
17854;SDS011;9053;53.358;6.382;2023-08-07T05:45:09;8.75;;;2.50;;
17854;SDS011;9053;53.358;6.382;2023-08-07T05:47:39;8.10;;;2.20;;
17854;SDS011;9053;53.358;6.382;2023-08-07T05:50:10;9.90;;;2.72;;
17854;SDS011;9053;53.358;6.382;2023-08-07T05:52:40;10.73;;;3.38;;
17854;SDS011;9053;53.358;6.382;2023-08-07T05:55:14;5.60;;;2.40;;
17854;SDS011;9053;53.358;6.382;2023-08-07T05:57:44;6.25;;;1.70;;
17854;SDS011;9053;53.358;6.382;2023-08-07T06:00:14;4.53;;;1.80;;
17854;SDS011;9053;53.358;6.382;2023-08-07T06:02:46;10.30;;;2.40;;
17854;SDS011;9053;53.358;6.382;2023-08-07T06:05:16;9.57;;;2.42;;
17854;SDS011;9053;53.358;6.382;2023-08-07T06:07:47;11.50;;;2.95;;
17854;SDS011;9053;53.358;6.382;2023-08-07T06:10:19;9.15;;;2.88;;
17854;SDS011;9053;53.358;6.382;2023-08-07T06:12:49;9.40;;;2.70;;
17854;SDS011;9053;53.358;6.382;2023-08-07T06:15:19;9.63;;;3.22;;
17854;SDS011;9053;53.358;6.382;2023-08-07T06:17:49;8.07;;;2.30;;
17854;SDS011;9053;53.358;6.382;2023-08-07T06:20:20;7.10;;;2.20;;
17854;SDS011;9053;53.358;6.382;2023-08-07T06:22:50;9.13;;;2.15;;
17854;SDS011;9053;53.358;6.382;2023-08-07T06:25:22;4.88;;;2.13;;
17854;SDS011;9053;53.358;6.382;2023-08-07T06:27:53;8.38;;;2.63;;
17854;SDS011;9053;53.358;6.382;2023-08-07T06:30:23;10.52;;;2.80;;
17854;SDS011;9053;53.358;6.382;2023-08-07T06:32:53;6.95;;;3.05;;
17854;SDS011;9053;53.358;6.382;2023-08-07T06:35:23;9.43;;;2.70;;
17854;SDS011;9053;53.358;6.382;2023-08-07T06:37:52;5.47;;;2.17;;
17854;SDS011;9053;53.358;6.382;2023-08-07T06:40:25;9.52;;;2.47;;
17854;SDS011;9053;53.358;6.382;2023-08-07T06:42:56;8.27;;;2.70;;
17854;SDS011;9053;53.358;6.382;2023-08-07T06:45:26;8.52;;;2.67;;
17854;SDS011;9053;53.358;6.382;2023-08-07T06:47:56;11.30;;;3.00;;
17854;SDS011;9053;53.358;6.382;2023-08-07T06:50:26;15.20;;;3.17;;
17854;SDS011;9053;53.358;6.382;2023-08-07T06:52:56;5.68;;;2.42;;
17854;SDS011;9053;53.358;6.382;2023-08-07T06:55:28;8.38;;;2.60;;
17854;SDS011;9053;53.358;6.382;2023-08-07T06:57:59;8.57;;;2.50;;
17854;SDS011;9053;53.358;6.382;2023-08-07T07:00:29;13.00;;;2.85;;
17854;SDS011;9053;53.358;6.382;2023-08-07T07:03:01;5.97;;;2.38;;
17854;SDS011;9053;53.358;6.382;2023-08-07T07:05:34;10.23;;;2.42;;
17854;SDS011;9053;53.358;6.382;2023-08-07T07:08:04;9.75;;;2.40;;
17854;SDS011;9053;53.358;6.382;2023-08-07T07:10:36;6.35;;;2.03;;
17854;SDS011;9053;53.358;6.382;2023-08-07T07:13:06;6.38;;;2.33;;
17854;SDS011;9053;53.358;6.382;2023-08-07T07:15:38;10.07;;;2.35;;
17854;SDS011;9053;53.358;6.382;2023-08-07T07:18:08;8.48;;;2.50;;
17854;SDS011;9053;53.358;6.382;2023-08-07T07:20:38;9.65;;;3.10;;
17854;SDS011;9053;53.358;6.382;2023-08-07T07:23:08;11.65;;;2.90;;
17854;SDS011;9053;53.358;6.382;2023-08-07T07:25:41;7.72;;;2.13;;
17854;SDS011;9053;53.358;6.382;2023-08-07T07:28:10;7.97;;;2.20;;
17854;SDS011;9053;53.358;6.382;2023-08-07T07:30:40;3.95;;;2.22;;
17854;SDS011;9053;53.358;6.382;2023-08-07T07:33:11;6.40;;;2.00;;
17854;SDS011;9053;53.358;6.382;2023-08-07T07:35:41;6.10;;;2.38;;
17854;SDS011;9053;53.358;6.382;2023-08-07T07:38:11;7.00;;;2.17;;
17854;SDS011;9053;53.358;6.382;2023-08-07T07:40:45;7.50;;;2.50;;
17854;SDS011;9053;53.358;6.382;2023-08-07T07:43:15;5.45;;;2.50;;
17854;SDS011;9053;53.358;6.382;2023-08-07T07:45:45;7.35;;;2.40;;
17854;SDS011;9053;53.358;6.382;2023-08-07T07:48:15;6.35;;;2.20;;
17854;SDS011;9053;53.358;6.382;2023-08-07T07:50:45;7.60;;;2.60;;
17854;SDS011;9053;53.358;6.382;2023-08-07T07:53:14;10.93;;;2.88;;
17854;SDS011;9053;53.358;6.382;2023-08-07T07:55:49;5.15;;;2.40;;
17854;SDS011;9053;53.358;6.382;2023-08-07T07:58:19;10.70;;;2.88;;
17854;SDS011;9053;53.358;6.382;2023-08-07T08:00:49;10.40;;;2.83;;
17854;SDS011;9053;53.358;6.382;2023-08-07T08:03:20;8.98;;;2.50;;
17854;SDS011;9053;53.358;6.382;2023-08-07T08:05:51;6.53;;;2.25;;
17854;SDS011;9053;53.358;6.382;2023-08-07T08:08:21;5.22;;;2.10;;
17854;SDS011;9053;53.358;6.382;2023-08-07T08:10:56;19.52;;;2.58;;
17854;SDS011;9053;53.358;6.382;2023-08-07T08:13:29;5.85;;;2.30;;
17854;SDS011;9053;53.358;6.382;2023-08-07T08:16:00;7.25;;;2.20;;
17854;SDS011;9053;53.358;6.382;2023-08-07T08:18:30;7.10;;;2.47;;
17854;SDS011;9053;53.358;6.382;2023-08-07T08:21:00;7.05;;;2.50;;
17854;SDS011;9053;53.358;6.382;2023-08-07T08:23:30;6.90;;;2.28;;
17854;SDS011;9053;53.358;6.382;2023-08-07T08:26:03;12.15;;;3.08;;
17854;SDS011;9053;53.358;6.382;2023-08-07T08:28:33;8.52;;;2.72;;
17854;SDS011;9053;53.358;6.382;2023-08-07T08:31:02;5.57;;;1.98;;
17854;SDS011;9053;53.358;6.382;2023-08-07T08:33:33;6.65;;;2.10;;
17854;SDS011;9053;53.358;6.382;2023-08-07T08:36:03;6.95;;;2.30;;
17854;SDS011;9053;53.358;6.382;2023-08-07T08:38:33;8.57;;;2.10;;
17854;SDS011;9053;53.358;6.382;2023-08-07T08:41:05;6.93;;;2.88;;
17854;SDS011;9053;53.358;6.382;2023-08-07T08:43:39;9.93;;;2.42;;
17854;SDS011;9053;53.358;6.382;2023-08-07T08:46:10;5.53;;;2.40;;
17854;SDS011;9053;53.358;6.382;2023-08-07T08:48:40;7.22;;;1.92;;
17854;SDS011;9053;53.358;6.382;2023-08-07T08:51:15;4.75;;;2.05;;
17854;SDS011;9053;53.358;6.382;2023-08-07T08:53:48;6.50;;;2.13;;
17854;SDS011;9053;53.358;6.382;2023-08-07T08:56:22;6.13;;;2.30;;
17854;SDS011;9053;53.358;6.382;2023-08-07T08:58:52;10.98;;;2.22;;
17854;SDS011;9053;53.358;6.382;2023-08-07T09:01:22;6.07;;;2.28;;
17854;SDS011;9053;53.358;6.382;2023-08-07T09:03:53;7.35;;;2.10;;
17854;SDS011;9053;53.358;6.382;2023-08-07T09:06:25;9.98;;;2.28;;
17854;SDS011;9053;53.358;6.382;2023-08-07T09:08:57;5.93;;;2.38;;
17854;SDS011;9053;53.358;6.382;2023-08-07T09:11:30;9.23;;;2.35;;
17854;SDS011;9053;53.358;6.382;2023-08-07T09:14:06;5.50;;;2.28;;
17854;SDS011;9053;53.358;6.382;2023-08-07T09:16:36;7.05;;;2.35;;
17854;SDS011;9053;53.358;6.382;2023-08-07T09:19:07;9.43;;;2.55;;
17854;SDS011;9053;53.358;6.382;2023-08-07T09:21:37;7.68;;;2.58;;
17854;SDS011;9053;53.358;6.382;2023-08-07T09:24:09;6.68;;;1.95;;
17854;SDS011;9053;53.358;6.382;2023-08-07T09:26:41;6.53;;;1.92;;
17854;SDS011;9053;53.358;6.382;2023-08-07T09:29:12;7.55;;;2.38;;
17854;SDS011;9053;53.358;6.382;2023-08-07T09:31:43;8.02;;;2.03;;
17854;SDS011;9053;53.358;6.382;2023-08-07T09:34:14;4.65;;;1.80;;
17854;SDS011;9053;53.358;6.382;2023-08-07T09:36:48;7.40;;;2.10;;
17854;SDS011;9053;53.358;6.382;2023-08-07T09:39:18;9.50;;;2.28;;
17854;SDS011;9053;53.358;6.382;2023-08-07T09:41:59;6.85;;;2.20;;
17854;SDS011;9053;53.358;6.382;2023-08-07T09:44:34;5.55;;;2.10;;
17854;SDS011;9053;53.358;6.382;2023-08-07T09:47:11;3.60;;;1.80;;
17854;SDS011;9053;53.358;6.382;2023-08-07T09:49:42;5.32;;;2.13;;
17854;SDS011;9053;53.358;6.382;2023-08-07T09:52:13;5.72;;;1.95;;
17854;SDS011;9053;53.358;6.382;2023-08-07T09:54:45;6.85;;;2.20;;
17854;SDS011;9053;53.358;6.382;2023-08-07T09:57:17;8.70;;;2.35;;
17854;SDS011;9053;53.358;6.382;2023-08-07T09:59:49;7.22;;;2.67;;
17854;SDS011;9053;53.358;6.382;2023-08-07T10:02:19;6.15;;;2.08;;
17854;SDS011;9053;53.358;6.382;2023-08-07T10:04:50;8.32;;;2.35;;
17854;SDS011;9053;53.358;6.382;2023-08-07T10:07:22;6.38;;;2.35;;
17854;SDS011;9053;53.358;6.382;2023-08-07T10:09:52;6.07;;;2.20;;
17854;SDS011;9053;53.358;6.382;2023-08-07T10:12:26;10.55;;;2.60;;
17854;SDS011;9053;53.358;6.382;2023-08-07T10:14:57;9.77;;;2.70;;
17854;SDS011;9053;53.358;6.382;2023-08-07T10:17:28;12.60;;;2.97;;
17854;SDS011;9053;53.358;6.382;2023-08-07T10:19:59;5.88;;;2.22;;
17854;SDS011;9053;53.358;6.382;2023-08-07T10:22:31;6.57;;;2.55;;
17854;SDS011;9053;53.358;6.382;2023-08-07T10:25:04;6.85;;;2.08;;
17854;SDS011;9053;53.358;6.382;2023-08-07T10:27:39;5.95;;;1.92;;
17854;SDS011;9053;53.358;6.382;2023-08-07T10:30:12;10.57;;;2.15;;
17854;SDS011;9053;53.358;6.382;2023-08-07T10:32:44;6.18;;;2.17;;
17854;SDS011;9053;53.358;6.382;2023-08-07T10:35:23;9.75;;;1.98;;
17854;SDS011;9053;53.358;6.382;2023-08-07T10:37:53;7.07;;;1.70;;
17854;SDS011;9053;53.358;6.382;2023-08-07T10:40:23;6.75;;;1.70;;
17854;SDS011;9053;53.358;6.382;2023-08-07T10:42:59;6.60;;;1.60;;
17854;SDS011;9053;53.358;6.382;2023-08-07T10:45:41;4.97;;;1.80;;
17854;SDS011;9053;53.358;6.382;2023-08-07T10:48:11;4.93;;;1.73;;
17854;SDS011;9053;53.358;6.382;2023-08-07T10:50:51;4.90;;;1.63;;
17854;SDS011;9053;53.358;6.382;2023-08-07T10:53:29;3.22;;;1.58;;
17854;SDS011;9053;53.358;6.382;2023-08-07T10:56:01;7.47;;;1.88;;
17854;SDS011;9053;53.358;6.382;2023-08-07T10:58:36;7.90;;;2.05;;
17854;SDS011;9053;53.358;6.382;2023-08-07T11:01:17;10.57;;;2.42;;
17854;SDS011;9053;53.358;6.382;2023-08-07T11:03:49;7.95;;;2.13;;
17854;SDS011;9053;53.358;6.382;2023-08-07T11:06:24;7.90;;;2.30;;
17854;SDS011;9053;53.358;6.382;2023-08-07T11:08:58;6.68;;;2.00;;
17854;SDS011;9053;53.358;6.382;2023-08-07T11:11:34;6.85;;;2.03;;
17854;SDS011;9053;53.358;6.382;2023-08-07T11:14:10;5.93;;;2.00;;
17854;SDS011;9053;53.358;6.382;2023-08-07T11:16:42;3.90;;;1.75;;
17854;SDS011;9053;53.358;6.382;2023-08-07T11:19:13;5.53;;;1.92;;
17854;SDS011;9053;53.358;6.382;2023-08-07T11:21:44;5.57;;;2.05;;
17854;SDS011;9053;53.358;6.382;2023-08-07T11:24:14;3.85;;;1.40;;
17854;SDS011;9053;53.358;6.382;2023-08-07T11:26:48;3.83;;;1.80;;
17854;SDS011;9053;53.358;6.382;2023-08-07T11:29:21;5.85;;;1.80;;
17854;SDS011;9053;53.358;6.382;2023-08-07T11:31:51;4.28;;;1.77;;
17854;SDS011;9053;53.358;6.382;2023-08-07T11:34:21;5.10;;;1.40;;
17854;SDS011;9053;53.358;6.382;2023-08-07T11:36:52;4.68;;;1.90;;
17854;SDS011;9053;53.358;6.382;2023-08-07T11:39:23;4.63;;;1.80;;
17854;SDS011;9053;53.358;6.382;2023-08-07T11:41:53;4.18;;;1.70;;
17854;SDS011;9053;53.358;6.382;2023-08-07T11:44:26;8.60;;;1.90;;
17854;SDS011;9053;53.358;6.382;2023-08-07T11:46:56;5.07;;;1.60;;
17854;SDS011;9053;53.358;6.382;2023-08-07T11:49:26;4.28;;;1.90;;
17854;SDS011;9053;53.358;6.382;2023-08-07T11:51:56;5.88;;;1.65;;
17854;SDS011;9053;53.358;6.382;2023-08-07T11:54:26;4.78;;;1.55;;
17854;SDS011;9053;53.358;6.382;2023-08-07T11:56:56;3.08;;;1.40;;
17854;SDS011;9053;53.358;6.382;2023-08-07T11:59:29;9.57;;;1.90;;
17854;SDS011;9053;53.358;6.382;2023-08-07T12:01:59;5.53;;;1.70;;
17854;SDS011;9053;53.358;6.382;2023-08-07T12:04:38;5.35;;;1.88;;
17854;SDS011;9053;53.358;6.382;2023-08-07T12:07:10;5.25;;;1.90;;
17854;SDS011;9053;53.358;6.382;2023-08-07T12:09:40;6.30;;;2.30;;
17854;SDS011;9053;53.358;6.382;2023-08-07T12:12:11;6.60;;;1.95;;
17854;SDS011;9053;53.358;6.382;2023-08-07T12:14:44;4.70;;;1.80;;
17854;SDS011;9053;53.358;6.382;2023-08-07T12:17:13;5.68;;;1.85;;
17854;SDS011;9053;53.358;6.382;2023-08-07T12:19:46;4.35;;;1.55;;
17854;SDS011;9053;53.358;6.382;2023-08-07T12:22:18;5.63;;;2.10;;
17854;SDS011;9053;53.358;6.382;2023-08-07T12:24:49;5.43;;;1.95;;
17854;SDS011;9053;53.358;6.382;2023-08-07T12:27:20;5.45;;;2.00;;
17854;SDS011;9053;53.358;6.382;2023-08-07T12:29:52;6.90;;;1.98;;
17854;SDS011;9053;53.358;6.382;2023-08-07T12:32:22;7.00;;;2.00;;
17854;SDS011;9053;53.358;6.382;2023-08-07T12:34:52;9.70;;;2.22;;
17854;SDS011;9053;53.358;6.382;2023-08-07T12:37:25;4.75;;;2.28;;
17854;SDS011;9053;53.358;6.382;2023-08-07T12:39:55;6.05;;;2.00;;
17854;SDS011;9053;53.358;6.382;2023-08-07T12:42:45;7.40;;;2.47;;
17854;SDS011;9053;53.358;6.382;2023-08-07T12:45:17;5.32;;;2.00;;
17854;SDS011;9053;53.358;6.382;2023-08-07T12:48:07;5.30;;;2.00;;
17854;SDS011;9053;53.358;6.382;2023-08-07T12:50:38;6.88;;;2.30;;
17854;SDS011;9053;53.358;6.382;2023-08-07T12:53:08;5.75;;;2.00;;
17854;SDS011;9053;53.358;6.382;2023-08-07T12:55:38;8.48;;;2.22;;
17854;SDS011;9053;53.358;6.382;2023-08-07T12:58:08;6.35;;;2.15;;
17854;SDS011;9053;53.358;6.382;2023-08-07T13:00:40;6.55;;;2.60;;
17854;SDS011;9053;53.358;6.382;2023-08-07T13:03:10;6.88;;;2.75;;
17854;SDS011;9053;53.358;6.382;2023-08-07T13:05:40;7.75;;;2.50;;
17854;SDS011;9053;53.358;6.382;2023-08-07T13:08:10;6.95;;;2.35;;
17854;SDS011;9053;53.358;6.382;2023-08-07T13:10:40;6.30;;;2.60;;
17854;SDS011;9053;53.358;6.382;2023-08-07T13:13:15;6.43;;;2.22;;
17854;SDS011;9053;53.358;6.382;2023-08-07T13:15:49;4.82;;;2.00;;
17854;SDS011;9053;53.358;6.382;2023-08-07T13:18:21;6.65;;;2.40;;
17854;SDS011;9053;53.358;6.382;2023-08-07T13:20:51;4.88;;;1.85;;
17854;SDS011;9053;53.358;6.382;2023-08-07T13:23:23;7.13;;;2.33;;
17854;SDS011;9053;53.358;6.382;2023-08-07T13:25:53;5.63;;;2.08;;
17854;SDS011;9053;53.358;6.382;2023-08-07T13:28:23;6.15;;;2.10;;
17854;SDS011;9053;53.358;6.382;2023-08-07T13:30:55;9.18;;;2.88;;
17854;SDS011;9053;53.358;6.382;2023-08-07T13:33:25;5.43;;;2.10;;
17854;SDS011;9053;53.358;6.382;2023-08-07T13:35:55;6.07;;;2.47;;
17854;SDS011;9053;53.358;6.382;2023-08-07T13:38:25;8.68;;;2.53;;
17854;SDS011;9053;53.358;6.382;2023-08-07T13:40:55;9.30;;;2.67;;
17854;SDS011;9053;53.358;6.382;2023-08-07T13:43:25;4.57;;;1.95;;
17854;SDS011;9053;53.358;6.382;2023-08-07T13:45:58;8.57;;;2.33;;
17854;SDS011;9053;53.358;6.382;2023-08-07T13:48:27;5.15;;;2.33;;
17854;SDS011;9053;53.358;6.382;2023-08-07T13:51:00;6.63;;;2.10;;
17854;SDS011;9053;53.358;6.382;2023-08-07T13:53:33;6.15;;;2.70;;
17854;SDS011;9053;53.358;6.382;2023-08-07T13:56:03;5.60;;;2.15;;
17854;SDS011;9053;53.358;6.382;2023-08-07T13:58:35;5.97;;;2.40;;
17854;SDS011;9053;53.358;6.382;2023-08-07T14:01:07;5.88;;;2.08;;
17854;SDS011;9053;53.358;6.382;2023-08-07T14:03:37;6.10;;;2.30;;
17854;SDS011;9053;53.358;6.382;2023-08-07T14:06:07;5.82;;;2.20;;
17854;SDS011;9053;53.358;6.382;2023-08-07T14:08:38;4.70;;;2.00;;
17854;SDS011;9053;53.358;6.382;2023-08-07T14:11:08;7.68;;;2.00;;
17854;SDS011;9053;53.358;6.382;2023-08-07T14:13:40;7.40;;;2.33;;
17854;SDS011;9053;53.358;6.382;2023-08-07T14:16:15;3.10;;;1.70;;
17854;SDS011;9053;53.358;6.382;2023-08-07T14:18:45;4.82;;;1.80;;
17854;SDS011;9053;53.358;6.382;2023-08-07T14:21:15;8.05;;;2.30;;
17854;SDS011;9053;53.358;6.382;2023-08-07T14:23:45;3.92;;;1.90;;
17854;SDS011;9053;53.358;6.382;2023-08-07T14:26:16;4.70;;;1.90;;
17854;SDS011;9053;53.358;6.382;2023-08-07T14:28:47;4.07;;;1.67;;
17854;SDS011;9053;53.358;6.382;2023-08-07T14:31:19;6.90;;;2.33;;
17854;SDS011;9053;53.358;6.382;2023-08-07T14:33:49;3.53;;;1.73;;
17854;SDS011;9053;53.358;6.382;2023-08-07T14:36:20;3.13;;;1.50;;
17854;SDS011;9053;53.358;6.382;2023-08-07T14:38:50;3.97;;;1.75;;
17854;SDS011;9053;53.358;6.382;2023-08-07T14:41:20;4.25;;;1.58;;
17854;SDS011;9053;53.358;6.382;2023-08-07T14:43:50;8.95;;;3.30;;
17854;SDS011;9053;53.358;6.382;2023-08-07T14:46:23;3.70;;;1.90;;
17854;SDS011;9053;53.358;6.382;2023-08-07T14:48:53;6.32;;;2.03;;
17854;SDS011;9053;53.358;6.382;2023-08-07T14:51:23;7.25;;;2.95;;
17854;SDS011;9053;53.358;6.382;2023-08-07T14:53:53;5.45;;;2.05;;
17854;SDS011;9053;53.358;6.382;2023-08-07T14:56:23;3.97;;;1.58;;
17854;SDS011;9053;53.358;6.382;2023-08-07T14:58:53;4.18;;;1.80;;
17854;SDS011;9053;53.358;6.382;2023-08-07T15:01:25;7.60;;;2.33;;
17854;SDS011;9053;53.358;6.382;2023-08-07T15:03:56;6.68;;;1.80;;
17854;SDS011;9053;53.358;6.382;2023-08-07T15:06:26;6.07;;;2.00;;
17854;SDS011;9053;53.358;6.382;2023-08-07T15:08:59;5.75;;;2.22;;
17854;SDS011;9053;53.358;6.382;2023-08-07T15:11:29;7.10;;;2.10;;
17854;SDS011;9053;53.358;6.382;2023-08-07T15:14:00;3.33;;;1.58;;
17854;SDS011;9053;53.358;6.382;2023-08-07T15:16:33;4.57;;;1.73;;
17854;SDS011;9053;53.358;6.382;2023-08-07T15:19:04;2.53;;;1.40;;
17854;SDS011;9053;53.358;6.382;2023-08-07T15:21:34;5.03;;;2.05;;
17854;SDS011;9053;53.358;6.382;2023-08-07T15:24:04;6.18;;;1.58;;
17854;SDS011;9053;53.358;6.382;2023-08-07T15:26:34;3.78;;;1.40;;